createdAt,value
2017-12-15T00:02:02.725Z,98204.22
2017-12-15T00:04:29.181Z,98214.56
2017-12-15T00:06:55.615Z,98207.58
2017-12-15T00:09:22.072Z,98210.41
2017-12-15T00:11:48.502Z,98198.84
2017-12-15T00:14:14.936Z,98203.55
2017-12-15T00:16:41.393Z,98211.21
2017-12-15T00:19:07.827Z,98213.50
2017-12-15T00:21:34.276Z,98206.91
2017-12-15T00:24:00.790Z,98199.53
2017-12-15T00:26:27.179Z,98215.11
2017-12-15T00:28:53.615Z,98221.56
2017-12-15T00:31:20.060Z,98216.19
2017-12-15T00:33:46.501Z,98204.64
2017-12-15T00:36:12.947Z,98209.87
2017-12-15T00:38:39.406Z,98223.45
2017-12-15T00:41:05.838Z,98222.64
2017-12-15T00:43:32.295Z,98209.08
2017-12-15T00:45:58.735Z,98215.53
2017-12-15T00:48:25.206Z,98224.39
2017-12-15T00:50:51.621Z,98215.94
2017-12-15T00:53:18.071Z,98211.09
2017-12-15T00:55:44.541Z,98216.34
2017-12-15T00:58:10.957Z,98218.63
2017-12-15T01:00:37.419Z,98221.84
2017-12-15T01:03:03.858Z,98226.95
2017-12-15T01:05:30.290Z,98238.23
2017-12-15T01:07:56.743Z,98249.52
2017-12-15T01:10:23.185Z,98257.31
2017-12-15T01:12:49.644Z,98293.05
2017-12-15T01:15:16.094Z,98325.14
2017-12-15T01:17:42.539Z,98338.58
2017-12-15T01:20:08.987Z,98336.30
2017-12-15T01:22:35.415Z,98340.72
2017-12-15T01:25:01.859Z,98352.41
2017-12-15T01:27:28.291Z,98352.41
2017-12-15T01:29:54.742Z,98347.17
2017-12-15T01:32:21.179Z,98348.38
2017-12-15T01:34:47.757Z,98338.70
2017-12-15T01:37:14.186Z,98336.56
2017-12-15T01:39:40.618Z,98334.95
2017-12-15T01:42:07.062Z,98338.97
2017-12-15T01:44:33.494Z,98340.05
2017-12-15T01:46:59.970Z,98338.84
2017-12-15T01:49:26.389Z,98347.30
2017-12-15T01:51:52.830Z,98354.69
2017-12-15T01:54:19.264Z,98347.30
2017-12-15T01:56:45.718Z,98358.04
2017-12-15T01:59:12.147Z,98361.67
2017-12-15T02:01:38.584Z,98369.45
2017-12-15T02:04:05.034Z,98375.23
2017-12-15T02:06:31.490Z,98376.30
2017-12-15T02:08:57.947Z,98385.83
2017-12-15T02:11:24.375Z,98401.14
2017-12-15T02:13:50.831Z,98404.23
2017-12-15T02:16:17.266Z,98415.64
2017-12-15T02:18:43.716Z,98420.20
2017-12-15T02:21:10.148Z,98417.78
2017-12-15T02:23:36.600Z,98419.66
2017-12-15T02:26:03.026Z,98410.80
2017-12-15T02:28:29.455Z,98410.39
2017-12-15T02:30:55.907Z,98418.05
2017-12-15T02:33:22.346Z,98412.41
2017-12-15T02:35:48.799Z,98415.63
2017-12-15T02:38:15.258Z,98425.84
2017-12-15T02:40:41.715Z,98424.63
2017-12-15T02:43:08.151Z,98428.65
2017-12-15T02:45:34.615Z,98434.83
2017-12-15T02:48:01.069Z,98432.55
2017-12-15T02:50:27.498Z,98440.33
2017-12-15T02:52:53.950Z,98455.09
2017-12-15T02:55:20.391Z,98459.26
2017-12-15T02:57:46.846Z,98467.84
2017-12-15T03:00:13.289Z,98463.28
2017-12-15T03:02:39.730Z,98463.41
2017-12-15T03:05:06.158Z,98471.73
2017-12-15T03:07:32.662Z,98474.95
2017-12-15T03:09:59.049Z,98477.37
2017-12-15T03:12:25.486Z,98478.31
2017-12-15T03:14:51.942Z,98489.05
2017-12-15T03:17:18.376Z,98489.98
2017-12-15T03:19:44.832Z,98497.77
2017-12-15T03:22:11.258Z,98507.70
2017-12-15T03:24:37.717Z,98515.35
2017-12-15T03:27:04.153Z,98519.11
2017-12-15T03:29:30.590Z,98522.20
2017-12-15T03:31:57.040Z,98522.97
2017-12-15T03:34:23.482Z,98530.20
2017-12-15T03:36:49.921Z,98525.65
2017-12-15T03:39:16.368Z,98527.12
2017-12-15T03:41:42.825Z,98522.41
2017-12-15T03:44:09.250Z,98528.05
2017-12-15T03:46:35.699Z,98528.05
2017-12-15T03:49:02.140Z,98538.66
2017-12-15T03:51:28.585Z,98537.04
2017-12-15T03:53:55.017Z,98539.86
2017-12-15T03:56:21.472Z,98548.04
2017-12-15T03:58:47.904Z,98558.24
2017-12-15T04:01:14.336Z,98554.34
2017-12-15T04:03:40.795Z,98554.34
2017-12-15T04:06:07.215Z,98559.31
2017-12-15T04:08:33.665Z,98570.18
2017-12-15T04:11:00.115Z,98562.13
2017-12-15T04:13:26.568Z,98566.69
2017-12-15T04:15:52.999Z,98563.33
2017-12-15T04:18:19.775Z,98566.95
2017-12-15T04:20:46.206Z,98572.98
2017-12-15T04:23:12.634Z,98572.98
2017-12-15T04:25:39.086Z,98575.13
2017-12-15T04:28:05.526Z,98577.14
2017-12-15T04:30:31.983Z,98574.33
2017-12-15T04:32:58.424Z,98581.83
2017-12-15T04:35:24.873Z,98581.83
2017-12-15T04:37:51.306Z,98599.81
2017-12-15T04:40:17.748Z,98606.78
2017-12-15T04:42:44.194Z,98609.34
2017-12-15T04:45:10.628Z,98615.77
2017-12-15T04:47:37.083Z,98625.58
2017-12-15T04:52:29.973Z,98636.84
2017-12-15T04:54:56.403Z,98638.84
2017-12-15T04:57:22.855Z,98649.45
2017-12-15T04:59:49.281Z,98647.18
2017-12-15T05:02:15.736Z,98648.65
2017-12-15T05:04:42.174Z,98651.61
2017-12-15T05:07:08.738Z,98659.53
2017-12-15T05:09:35.161Z,98663.30
2017-12-15T05:12:01.598Z,98662.64
2017-12-15T05:14:28.059Z,98666.69
2017-12-15T05:16:54.493Z,98666.58
2017-12-15T05:19:20.938Z,98675.46
2017-12-15T05:21:47.391Z,98676.42
2017-12-15T05:24:13.817Z,98679.70
2017-12-15T05:26:40.275Z,98674.77
2017-12-15T05:29:06.704Z,98677.75
2017-12-15T05:31:33.155Z,98681.54
2017-12-15T05:33:59.594Z,98683.98
2017-12-15T05:36:26.037Z,98683.88
2017-12-15T05:38:52.512Z,98686.59
2017-12-15T05:41:18.922Z,98685.94
2017-12-15T05:43:45.383Z,98693.22
2017-12-15T05:46:11.820Z,98698.48
2017-12-15T05:48:38.278Z,98700.12
2017-12-15T05:51:04.737Z,98710.88
2017-12-15T05:53:31.161Z,98711.58
2017-12-15T05:55:57.609Z,98722.34
2017-12-15T05:58:24.043Z,98727.73
2017-12-15T06:00:50.489Z,98732.58
2017-12-15T06:03:16.927Z,98733.54
2017-12-15T06:05:43.362Z,98724.55
2017-12-15T06:08:09.821Z,98727.66
2017-12-15T06:10:36.250Z,98728.58
2017-12-15T06:13:02.715Z,98728.99
2017-12-15T06:15:29.142Z,98724.56
2017-12-15T06:17:55.590Z,98734.94
2017-12-15T06:20:22.028Z,98738.58
2017-12-15T06:22:48.478Z,98739.12
2017-12-15T06:25:14.914Z,98733.48
2017-12-15T06:27:41.347Z,98739.94
2017-12-15T06:30:07.796Z,98744.12
2017-12-15T06:32:34.255Z,98734.84
2017-12-15T06:35:00.717Z,98745.75
2017-12-15T06:37:27.148Z,98741.86
2017-12-15T06:39:53.625Z,98749.66
2017-12-15T06:42:20.068Z,98745.23
2017-12-15T06:44:46.522Z,98739.59
2017-12-15T06:47:12.954Z,98749.69
2017-12-15T06:49:39.376Z,98748.61
2017-12-15T06:52:05.818Z,98755.25
2017-12-15T06:54:32.264Z,98755.12
2017-12-15T06:56:58.717Z,98759.70
2017-12-15T06:59:25.151Z,98753.25
2017-12-15T07:01:51.583Z,98751.39
2017-12-15T07:04:18.032Z,98754.38
2017-12-15T07:06:44.468Z,98768.52
2017-12-15T07:09:10.913Z,98775.52
2017-12-15T07:11:37.364Z,98772.30
2017-12-15T07:14:03.800Z,98761.95
2017-12-15T07:16:30.245Z,98774.75
2017-12-15T07:18:56.703Z,98776.77
2017-12-15T07:21:23.139Z,98763.86
2017-12-15T07:23:49.589Z,98762.78
2017-12-15T07:26:16.042Z,98753.64
2017-12-15T07:28:42.474Z,98752.56
2017-12-15T07:31:08.924Z,98749.19
2017-12-15T07:33:35.361Z,98742.30
2017-12-15T07:36:01.864Z,98739.62
2017-12-15T07:38:28.302Z,98740.97
2017-12-15T07:40:54.767Z,98740.69
2017-12-15T07:43:21.200Z,98739.22
2017-12-15T07:45:47.620Z,98734.78
2017-12-15T07:48:14.084Z,98732.91
2017-12-15T07:50:40.646Z,98738.83
2017-12-15T07:53:07.091Z,98744.76
2017-12-15T07:55:33.522Z,98748.12
2017-12-15T07:57:59.956Z,98743.41
2017-12-15T08:00:26.656Z,98744.09
2017-12-15T08:02:53.047Z,98742.21
2017-12-15T08:05:19.479Z,98746.92
2017-12-15T08:07:45.940Z,98752.98
2017-12-15T08:10:12.593Z,98746.66
2017-12-15T08:12:39.028Z,98748.68
2017-12-15T08:15:05.454Z,98746.13
2017-12-15T08:17:32.053Z,98751.24
2017-12-15T08:19:58.486Z,98750.17
2017-12-15T08:22:24.923Z,98758.38
2017-12-15T08:24:51.373Z,98755.97
2017-12-15T08:27:17.809Z,98757.58
2017-12-15T08:29:44.538Z,98756.50
2017-12-15T08:32:10.975Z,98754.77
2017-12-15T08:34:37.405Z,98755.70
2017-12-15T08:37:03.895Z,98754.23
2017-12-15T08:39:30.303Z,98749.25
2017-12-15T08:41:56.735Z,98746.42
2017-12-15T08:44:23.214Z,98749.25
2017-12-15T08:46:49.647Z,98755.59
2017-12-15T08:49:16.105Z,98756.67
2017-12-15T08:51:42.542Z,98758.55
2017-12-15T08:54:08.973Z,98755.19
2017-12-15T08:56:35.475Z,98749.81
2017-12-15T08:59:01.864Z,98745.09
2017-12-15T09:01:28.320Z,98748.20
2017-12-15T09:04:00.402Z,98747.12
2017-12-15T09:06:26.829Z,98744.84
2017-12-15T09:08:53.511Z,98747.12
2017-12-15T09:11:19.947Z,98748.34
2017-12-15T09:13:46.398Z,98754.81
2017-12-15T09:16:12.827Z,98749.55
2017-12-15T09:18:39.285Z,98751.31
2017-12-15T09:21:05.722Z,98757.09
2017-12-15T09:23:32.181Z,98757.37
2017-12-15T09:25:58.611Z,98754.95
2017-12-15T09:28:25.047Z,98762.62
2017-12-15T09:30:51.500Z,98756.97
2017-12-15T09:33:17.937Z,98756.29
2017-12-15T09:35:44.387Z,98759.25
2017-12-15T09:38:10.813Z,98751.44
2017-12-15T09:40:37.268Z,98750.90
2017-12-15T09:43:03.690Z,98751.97
2017-12-15T09:45:30.138Z,98752.24
2017-12-15T09:47:56.566Z,98755.07
2017-12-15T09:50:23.021Z,98746.45
2017-12-15T09:52:49.452Z,98756.68
2017-12-15T09:55:15.904Z,98751.30
2017-12-15T09:57:42.338Z,98750.89
2017-12-15T10:00:08.774Z,98747.26
2017-12-15T10:02:35.235Z,98744.16
2017-12-15T10:05:01.675Z,98742.95
2017-12-15T10:07:28.119Z,98738.11
2017-12-15T10:09:54.549Z,98733.39
2017-12-15T10:12:21.001Z,98734.73
2017-12-15T10:14:47.436Z,98726.13
2017-12-15T10:17:13.875Z,98735.55
2017-12-15T10:19:40.343Z,98724.38
2017-12-15T10:22:06.777Z,98724.51
2017-12-15T10:24:33.263Z,98720.33
2017-12-15T10:26:59.679Z,98715.89
2017-12-15T10:29:26.107Z,98708.61
2017-12-15T10:31:52.602Z,98704.98
2017-12-15T10:34:19.000Z,98704.17
2017-12-15T10:36:45.425Z,98695.69
2017-12-15T10:39:11.912Z,98698.52
2017-12-15T10:41:38.360Z,98705.25
2017-12-15T10:44:04.807Z,98700.94
2017-12-15T10:46:31.285Z,98704.17
2017-12-15T10:48:57.688Z,98700.27
2017-12-15T10:51:24.134Z,98698.25
2017-12-15T10:53:50.568Z,98691.78
2017-12-15T10:56:17.020Z,98695.02
2017-12-15T10:58:43.450Z,98686.12
2017-12-15T11:01:09.873Z,98690.70
2017-12-15T11:03:36.598Z,98695.28
2017-12-15T11:06:03.031Z,98696.22
2017-12-15T11:08:29.461Z,98696.22
2017-12-15T11:10:55.916Z,98693.66
2017-12-15T11:13:22.350Z,98702.41
2017-12-15T11:15:48.817Z,98699.72
2017-12-15T11:18:15.246Z,98701.06
2017-12-15T11:20:41.685Z,98700.80
2017-12-15T11:23:08.136Z,98710.22
2017-12-15T11:25:34.568Z,98704.44
2017-12-15T11:28:01.019Z,98706.72
2017-12-15T11:30:27.441Z,98702.41
2017-12-15T11:32:53.876Z,98704.56
2017-12-15T11:35:20.335Z,98703.36
2017-12-15T11:37:46.763Z,98707.13
2017-12-15T11:40:13.211Z,98702.82
2017-12-15T11:42:39.646Z,98712.92
2017-12-15T11:45:06.106Z,98712.25
2017-12-15T11:47:32.529Z,98716.96
2017-12-15T11:49:58.990Z,98715.34
2017-12-15T11:52:25.421Z,98712.25
2017-12-15T11:54:51.874Z,98714.41
2017-12-15T11:57:18.327Z,98723.69
2017-12-15T11:59:44.763Z,98730.70
2017-12-15T12:02:11.298Z,98722.88
2017-12-15T12:04:37.738Z,98734.33
2017-12-15T12:07:04.189Z,98733.11
2017-12-15T12:09:30.776Z,98736.61
2017-12-15T12:11:57.206Z,98735.27
2017-12-15T12:14:23.635Z,98737.28
2017-12-15T12:16:50.090Z,98741.05
2017-12-15T12:19:16.519Z,98741.45
2017-12-15T12:21:42.974Z,98737.69
2017-12-15T12:24:09.410Z,98740.38
2017-12-15T12:26:35.871Z,98743.75
2017-12-15T12:29:02.308Z,98744.02
2017-12-15T12:31:28.759Z,98738.50
2017-12-15T12:33:55.192Z,98746.84
2017-12-15T12:36:21.649Z,98746.05
2017-12-15T12:38:48.203Z,98752.64
2017-12-15T12:41:14.664Z,98754.52
2017-12-15T12:43:41.104Z,98753.05
2017-12-15T12:46:07.571Z,98754.52
2017-12-15T12:48:33.971Z,98758.97
2017-12-15T12:51:00.424Z,98761.66
2017-12-15T12:53:26.864Z,98750.89
2017-12-15T12:55:53.301Z,98756.55
2017-12-15T12:58:19.768Z,98756.14
2017-12-15T13:00:46.211Z,98757.48
2017-12-15T13:03:12.720Z,98753.31
2017-12-15T13:05:39.167Z,98758.70
2017-12-15T13:08:05.604Z,98763.14
2017-12-15T13:10:32.060Z,98758.16
2017-12-15T13:12:58.637Z,98761.13
2017-12-15T13:15:25.084Z,98763.02
2017-12-15T13:17:51.546Z,98762.22
2017-12-15T13:20:18.043Z,98754.81
2017-12-15T13:22:44.494Z,98748.20
2017-12-15T13:25:10.922Z,98765.45
2017-12-15T13:27:37.366Z,98769.08
2017-12-15T13:30:03.822Z,98768.41
2017-12-15T13:32:30.261Z,98772.04
2017-12-15T13:34:56.711Z,98777.42
2017-12-15T13:37:23.145Z,98787.26
2017-12-15T13:39:49.580Z,98782.95
2017-12-15T13:42:16.039Z,98791.97
2017-12-15T13:44:42.476Z,98791.03
2017-12-15T13:47:08.935Z,98799.11
2017-12-15T13:49:35.371Z,98809.88
2017-12-15T13:52:01.821Z,98805.30
2017-12-15T13:54:28.259Z,98807.05
2017-12-15T13:56:54.700Z,98809.22
2017-12-15T13:59:22.288Z,98813.80
2017-12-15T14:01:48.694Z,98818.92
2017-12-15T14:04:15.150Z,98826.05
2017-12-15T14:06:41.572Z,98828.11
2017-12-15T14:09:08.026Z,98826.77
2017-12-15T14:11:34.465Z,98824.88
2017-12-15T14:14:00.915Z,98825.83
2017-12-15T14:16:27.386Z,98829.19
2017-12-15T14:18:53.850Z,98831.34
2017-12-15T14:21:20.283Z,98839.30
2017-12-15T14:23:46.800Z,98839.97
2017-12-15T14:26:13.280Z,98848.41
2017-12-15T14:28:39.714Z,98843.02
2017-12-15T14:31:06.176Z,98848.27
2017-12-15T14:33:32.610Z,98847.19
2017-12-15T14:35:59.086Z,98847.33
2017-12-15T14:38:25.515Z,98848.94
2017-12-15T14:40:51.946Z,98850.16
2017-12-15T14:43:18.439Z,98854.23
2017-12-15T14:45:44.870Z,98861.65
2017-12-15T14:48:11.327Z,98861.52
2017-12-15T14:50:37.752Z,98859.23
2017-12-15T14:53:04.208Z,98859.23
2017-12-15T14:55:30.639Z,98857.47
2017-12-15T14:57:57.102Z,98860.17
2017-12-15T15:00:23.540Z,98867.45
2017-12-15T15:02:50.003Z,98867.59
2017-12-15T15:05:16.430Z,98873.65
2017-12-15T15:07:42.889Z,98874.19
2017-12-15T15:10:09.342Z,98879.58
2017-12-15T15:12:35.790Z,98878.64
2017-12-15T15:15:02.224Z,98879.31
2017-12-15T15:17:28.677Z,98881.06
2017-12-15T15:19:55.108Z,98878.91
2017-12-15T15:22:21.584Z,98877.56
2017-12-15T15:24:48.016Z,98873.66
2017-12-15T15:27:14.448Z,98867.87
2017-12-15T15:29:40.910Z,98869.22
2017-12-15T15:32:07.363Z,98865.72
2017-12-15T15:34:33.827Z,98873.39
2017-12-15T15:37:00.259Z,98870.02
2017-12-15T15:39:26.715Z,98870.96
2017-12-15T15:41:53.174Z,98868.67
2017-12-15T15:44:19.623Z,98862.08
2017-12-15T15:46:46.045Z,98870.03
2017-12-15T15:49:12.503Z,98866.13
2017-12-15T15:51:38.937Z,98863.16
2017-12-15T15:54:05.395Z,98857.64
2017-12-15T15:56:31.826Z,98859.13
2017-12-15T15:58:58.259Z,98873.81
2017-12-15T16:01:24.720Z,98869.49
2017-12-15T16:03:51.153Z,98870.16
2017-12-15T16:06:17.607Z,98879.86
2017-12-15T16:08:44.136Z,98886.19
2017-12-15T16:11:10.563Z,98882.14
2017-12-15T16:13:36.998Z,98889.95
2017-12-15T16:16:03.458Z,98894.00
2017-12-15T16:18:29.897Z,98893.19
2017-12-15T16:20:56.340Z,98895.20
2017-12-15T16:23:22.779Z,98897.09
2017-12-15T16:25:49.236Z,98892.38
2017-12-15T16:28:15.690Z,98894.25
2017-12-15T16:30:42.124Z,98900.72
2017-12-15T16:33:08.586Z,98909.88
2017-12-15T16:35:35.026Z,98907.45
2017-12-15T16:38:01.683Z,98911.62
2017-12-15T16:40:28.119Z,98910.91
2017-12-15T16:42:54.551Z,98915.21
2017-12-15T16:45:21.008Z,98916.69
2017-12-15T16:47:47.473Z,98917.36
2017-12-15T16:50:13.906Z,98917.09
2017-12-15T16:52:40.345Z,98909.14
2017-12-15T16:55:06.801Z,98909.67
2017-12-15T16:57:33.243Z,98911.69
2017-12-15T16:59:59.711Z,98913.98
2017-12-15T17:02:26.149Z,98909.41
2017-12-15T17:04:52.577Z,98915.61
2017-12-15T17:07:19.036Z,98911.98
2017-12-15T17:09:45.485Z,98920.65
2017-12-15T17:12:11.919Z,98914.72
2017-12-15T17:14:38.345Z,98916.47
2017-12-15T17:17:04.806Z,98924.16
2017-12-15T17:19:31.243Z,98920.12
2017-12-15T17:21:57.677Z,98928.06
2017-12-15T17:24:24.126Z,98931.15
2017-12-15T17:26:50.554Z,98929.53
2017-12-15T17:29:17.007Z,98927.11
2017-12-15T17:31:43.451Z,98936.67
2017-12-15T17:34:09.921Z,98932.63
2017-12-15T17:36:36.350Z,98933.16
2017-12-15T17:39:02.815Z,98932.77
2017-12-15T17:41:29.242Z,98938.55
2017-12-15T17:43:55.696Z,98942.06
2017-12-15T17:46:22.123Z,98941.11
2017-12-15T17:48:48.579Z,98946.50
2017-12-15T17:51:15.026Z,98952.30
2017-12-15T17:53:41.461Z,98952.16
2017-12-15T17:56:07.911Z,98954.86
2017-12-15T17:58:34.343Z,98956.61
2017-12-15T18:01:00.785Z,98945.56
2017-12-15T18:03:27.434Z,98952.30
2017-12-15T18:05:53.865Z,98958.64
2017-12-15T18:08:20.291Z,98955.00
2017-12-15T18:10:46.747Z,98951.89
2017-12-15T18:13:13.180Z,98951.22
2017-12-15T18:15:39.630Z,98955.25
2017-12-15T18:18:06.290Z,98953.91
2017-12-15T18:20:32.721Z,98945.66
2017-12-15T18:22:59.156Z,98944.31
2017-12-15T18:25:25.621Z,98937.70
2017-12-15T18:27:52.061Z,98935.41
2017-12-15T18:30:18.516Z,98932.05
2017-12-15T18:32:44.943Z,98934.34
2017-12-15T18:35:11.396Z,98940.26
2017-12-15T18:37:37.834Z,98945.78
2017-12-15T18:40:04.285Z,98949.41
2017-12-15T18:42:30.719Z,98953.31
2017-12-15T18:44:57.169Z,98951.02
2017-12-15T18:47:23.613Z,98951.69
2017-12-15T18:49:50.067Z,98956.27
2017-12-15T18:52:16.515Z,98954.92
2017-12-15T18:54:42.954Z,98949.26
2017-12-15T18:57:09.412Z,98960.03
2017-12-15T18:59:35.855Z,98956.13
2017-12-15T19:02:02.292Z,98960.97
2017-12-15T19:04:28.759Z,98953.84
2017-12-15T19:06:55.206Z,98957.87
2017-12-15T19:09:21.643Z,98963.27
2017-12-15T19:11:48.096Z,98972.28
2017-12-15T19:14:14.533Z,98977.14
2017-12-15T19:16:40.983Z,98978.61
2017-12-15T19:19:07.441Z,98979.55
2017-12-15T19:21:33.875Z,98982.78
2017-12-15T19:24:00.346Z,98980.91
2017-12-15T19:26:26.782Z,98980.52
2017-12-15T19:28:53.237Z,98981.34
2017-12-15T19:31:19.666Z,98985.38
2017-12-15T19:33:46.205Z,98990.50
2017-12-15T19:36:12.638Z,98987.81
2017-12-15T19:38:39.105Z,98985.25
2017-12-15T19:41:05.531Z,98991.85
2017-12-15T19:43:31.969Z,98984.31
2017-12-15T19:45:58.426Z,98990.10
2017-12-15T19:48:24.860Z,98993.20
2017-12-15T19:50:51.635Z,98996.97
2017-12-15T19:53:18.069Z,98995.62
2017-12-15T19:55:44.499Z,98999.66
2017-12-15T19:58:11.007Z,98999.92
2017-12-15T20:00:37.442Z,99006.25
2017-12-15T20:03:03.899Z,99005.44
2017-12-15T20:05:30.326Z,99005.57
2017-12-15T20:07:56.813Z,99009.87
2017-12-15T20:10:23.245Z,99007.86
2017-12-15T20:12:49.697Z,99005.84
2017-12-15T20:15:16.127Z,99015.41
2017-12-15T20:17:42.574Z,99012.72
2017-12-15T20:20:09.062Z,99015.55
2017-12-15T20:22:35.521Z,99013.93
2017-12-15T20:25:01.955Z,99020.65
2017-12-15T20:27:28.386Z,99014.05
2017-12-15T20:29:54.871Z,99016.88
2017-12-15T20:32:21.301Z,99024.55
2017-12-15T20:34:47.736Z,99028.31
2017-12-15T20:37:14.217Z,99028.98
2017-12-15T20:39:40.672Z,99025.47
2017-12-15T20:42:07.123Z,99029.64
2017-12-15T20:44:33.550Z,99029.37
2017-12-15T20:47:00.135Z,99026.27
2017-12-15T20:49:26.579Z,99027.34
2017-12-15T20:51:53.010Z,99023.43
2017-12-15T20:54:20.103Z,99026.80
2017-12-15T20:56:46.535Z,99025.45
2017-12-15T20:59:13.305Z,99026.65
2017-12-15T21:01:39.764Z,99027.02
2017-12-15T21:04:06.208Z,99027.40
2017-12-15T21:06:32.718Z,99028.05
2017-12-15T21:08:59.155Z,99028.83
2017-12-15T21:11:25.614Z,99035.41
2017-12-15T21:13:52.045Z,99034.98
2017-12-15T21:16:18.499Z,99032.81
2017-12-15T21:18:44.931Z,99035.10
2017-12-15T21:21:11.395Z,99041.81
2017-12-15T21:23:37.830Z,99046.64
2017-12-15T21:26:04.260Z,99040.30
2017-12-15T21:28:30.901Z,99050.92
2017-12-15T21:30:57.346Z,99050.37
2017-12-15T21:33:23.771Z,99056.16
2017-12-15T21:35:50.230Z,99052.91
2017-12-15T21:38:16.681Z,99052.36
2017-12-15T21:40:43.136Z,99060.95
2017-12-15T21:43:09.584Z,99064.05
2017-12-15T21:45:36.014Z,99066.56
2017-12-15T21:48:02.462Z,99065.34
2017-12-15T21:50:28.888Z,99061.16
2017-12-15T21:52:55.313Z,99067.20
2017-12-15T21:55:21.765Z,99068.81
2017-12-15T21:57:48.195Z,99072.29
2017-12-15T22:00:14.629Z,99069.85
2017-12-15T22:02:41.375Z,99078.46
2017-12-15T22:05:07.810Z,99080.06
2017-12-15T22:07:34.238Z,99075.47
2017-12-15T22:10:00.689Z,99079.23
2017-12-15T22:12:27.139Z,99082.98
2017-12-15T22:14:53.579Z,99085.66
2017-12-15T22:17:20.040Z,99093.84
2017-12-15T22:19:46.475Z,99094.92
2017-12-15T22:22:12.940Z,99100.02
2017-12-15T22:24:39.370Z,99098.80
2017-12-15T22:27:05.800Z,99099.05
2017-12-15T22:29:32.251Z,99103.34
2017-12-15T22:31:58.688Z,99105.75
2017-12-15T22:34:25.142Z,99114.20
2017-12-15T22:36:51.607Z,99103.57
2017-12-15T22:39:18.056Z,99102.63
2017-12-15T22:41:44.499Z,99106.80
2017-12-15T22:44:10.961Z,99107.02
2017-12-15T22:46:37.395Z,99106.45
2017-12-15T22:49:03.824Z,99107.25
2017-12-15T22:51:30.284Z,99112.34
2017-12-15T22:53:56.715Z,99111.94
2017-12-15T22:56:23.168Z,99110.44
2017-12-15T22:58:49.603Z,99114.33
2017-12-15T23:01:16.062Z,99108.13
2017-12-15T23:03:42.500Z,99112.30
2017-12-15T23:06:08.943Z,99118.86
2017-12-15T23:08:35.380Z,99122.09
2017-12-15T23:11:01.806Z,99124.37
2017-12-15T23:13:28.261Z,99127.31
2017-12-15T23:15:54.693Z,99128.09
2017-12-15T23:18:21.138Z,99133.34
2017-12-15T23:20:47.574Z,99125.94
2017-12-15T23:23:14.027Z,99130.09
2017-12-15T23:25:40.506Z,99136.54
2017-12-15T23:28:06.958Z,99142.98
2017-12-15T23:30:33.394Z,99140.41
2017-12-15T23:32:59.831Z,99147.27
2017-12-15T23:35:26.292Z,99143.48
2017-12-15T23:37:52.740Z,99141.33
2017-12-15T23:40:19.194Z,99146.83
2017-12-15T23:42:45.629Z,99146.67
2017-12-15T23:45:12.082Z,99151.77
2017-12-15T23:47:38.516Z,99151.77
2017-12-15T23:50:04.973Z,99147.99
2017-12-15T23:52:31.398Z,99149.05
2017-12-15T23:54:57.829Z,99149.05
2017-12-15T23:57:24.273Z,99146.89
2017-12-15T23:59:50.719Z,99151.73
